Astoria Regional Airport Astoria US
ICAO: KAST
IATA: AST
Category: Medium
Scheduled Services: No

Elevation: 15 ft
TransAlt. 18000 ft.

Airport Communications:
ASOS:135.375
SEATTLE CNTR:124.2
AIR CG:38.18
MC MINNVILLE RDO:122.3
CTAF/UNICOM:122.8

KAST Zoom In..

Runways:

(A) RW 08 length 5795 ft width 100 ft
---- / hdg 77

(B) RW 13 length 4996 ft width 100 ft
---- / hdg 135

(C) RW 26 length 5795 ft width 100 ft
ILS 109.50 / hdg 257

(D) RW 31 length 4996 ft width 100 ft
---- / hdg 315

Location; KAST
Day. 24 / Time. 13.32 Zulu
* Altimeter: 30.04
* Temperature: 12° c. 53.6°f.
* Wind from: 000° Speed 00 kn.
Dewpoint: 12° c.
Visibility: 9 Statute Miles.
Clouds: Few 500 ft.
Clouds: Scattered 2500 ft.
Clouds: Overcast 4000 ft.

KAST 241332Z AUTO 00000KT 9SM FEW005 SCT025 OVC040 12/12 A3004 RMK AO2 CIG 027 RWY 08 T01220117


Wind - Calm.

 
 
jpsmedia.com for Web Design SOUNDCLOUD worldairports.se 2018   terms of use